sensor_id;sensor_type;location;lat;lon;timestamp;temperature;humidity
25983;DHT22;13773;48.868;10.730;2023-09-30T00:01:02;13.70;99.90
25983;DHT22;13773;48.868;10.730;2023-09-30T00:03:28;13.70;99.90
25983;DHT22;13773;48.868;10.730;2023-09-30T00:05:54;13.50;99.90
25983;DHT22;13773;48.868;10.730;2023-09-30T00:08:20;13.50;99.90
25983;DHT22;13773;48.868;10.730;2023-09-30T00:10:46;13.50;99.90
25983;DHT22;13773;48.868;10.730;2023-09-30T00:13:12;13.50;99.90
25983;DHT22;13773;48.868;10.730;2023-09-30T00:15:38;13.50;99.90
25983;DHT22;13773;48.868;10.730;2023-09-30T00:18:04;13.50;99.90
25983;DHT22;13773;48.868;10.730;2023-09-30T00:20:30;13.60;99.90
25983;DHT22;13773;48.868;10.730;2023-09-30T00:22:56;13.50;99.90
25983;DHT22;13773;48.868;10.730;2023-09-30T00:25:22;13.50;99.90
25983;DHT22;13773;48.868;10.730;2023-09-30T00:27:48;13.50;99.90
25983;DHT22;13773;48.868;10.730;2023-09-30T00:30:14;13.50;99.90
25983;DHT22;13773;48.868;10.730;2023-09-30T00:32:39;13.50;99.90
25983;DHT22;13773;48.868;10.730;2023-09-30T00:35:08;13.50;99.90
25983;DHT22;13773;48.868;10.730;2023-09-30T00:37:39;13.50;99.90
25983;DHT22;13773;48.868;10.730;2023-09-30T00:40:06;13.50;99.90
25983;DHT22;13773;48.868;10.730;2023-09-30T00:42:32;13.50;99.90
25983;DHT22;13773;48.868;10.730;2023-09-30T00:44:57;13.40;99.90
25983;DHT22;13773;48.868;10.730;2023-09-30T00:47:23;13.40;99.90
25983;DHT22;13773;48.868;10.730;2023-09-30T00:49:51;13.40;99.90
25983;DHT22;13773;48.868;10.730;2023-09-30T00:52:17;13.40;99.90
25983;DHT22;13773;48.868;10.730;2023-09-30T00:54:44;13.40;99.90
25983;DHT22;13773;48.868;10.730;2023-09-30T00:57:10;13.40;99.90
25983;DHT22;13773;48.868;10.730;2023-09-30T00:59:37;13.40;99.90
25983;DHT22;13773;48.868;10.730;2023-09-30T01:02:03;13.50;99.90
25983;DHT22;13773;48.868;10.730;2023-09-30T01:04:31;13.50;99.90
25983;DHT22;13773;48.868;10.730;2023-09-30T01:06:57;13.50;99.90
25983;DHT22;13773;48.868;10.730;2023-09-30T01:09:23;13.40;99.90
25983;DHT22;13773;48.868;10.730;2023-09-30T01:11:49;13.30;99.90
25983;DHT22;13773;48.868;10.730;2023-09-30T01:14:25;13.30;99.90
25983;DHT22;13773;48.868;10.730;2023-09-30T01:16:51;13.30;99.90
25983;DHT22;13773;48.868;10.730;2023-09-30T01:19:17;13.30;99.90
25983;DHT22;13773;48.868;10.730;2023-09-30T01:21:42;13.20;99.90
25983;DHT22;13773;48.868;10.730;2023-09-30T01:24:14;13.20;99.90
25983;DHT22;13773;48.868;10.730;2023-09-30T01:26:40;13.20;99.90
25983;DHT22;13773;48.868;10.730;2023-09-30T01:29:08;13.20;99.90
25983;DHT22;13773;48.868;10.730;2023-09-30T01:31:37;13.10;99.90
25983;DHT22;13773;48.868;10.730;2023-09-30T01:34:02;13.00;99.90
25983;DHT22;13773;48.868;10.730;2023-09-30T01:36:28;13.00;99.90
25983;DHT22;13773;48.868;10.730;2023-09-30T01:38:54;13.00;99.90
25983;DHT22;13773;48.868;10.730;2023-09-30T01:41:20;13.00;99.90
25983;DHT22;13773;48.868;10.730;2023-09-30T01:43:45;13.00;99.90
25983;DHT22;13773;48.868;10.730;2023-09-30T01:46:12;13.00;99.90
25983;DHT22;13773;48.868;10.730;2023-09-30T01:48:38;13.00;99.90
25983;DHT22;13773;48.868;10.730;2023-09-30T01:51:04;13.00;99.90
25983;DHT22;13773;48.868;10.730;2023-09-30T01:53:29;12.90;99.90
25983;DHT22;13773;48.868;10.730;2023-09-30T01:55:55;13.00;99.90
25983;DHT22;13773;48.868;10.730;2023-09-30T01:58:21;13.10;99.90
25983;DHT22;13773;48.868;10.730;2023-09-30T02:00:46;13.10;99.90
25983;DHT22;13773;48.868;10.730;2023-09-30T02:03:12;13.10;99.90
25983;DHT22;13773;48.868;10.730;2023-09-30T02:05:40;13.10;99.90
25983;DHT22;13773;48.868;10.730;2023-09-30T02:08:06;13.20;99.90
25983;DHT22;13773;48.868;10.730;2023-09-30T02:10:32;13.30;99.90
25983;DHT22;13773;48.868;10.730;2023-09-30T02:13:01;13.40;99.90
25983;DHT22;13773;48.868;10.730;2023-09-30T02:15:27;13.40;99.90
25983;DHT22;13773;48.868;10.730;2023-09-30T02:17:52;13.50;99.90
25983;DHT22;13773;48.868;10.730;2023-09-30T02:20:18;13.50;99.90
25983;DHT22;13773;48.868;10.730;2023-09-30T02:22:47;13.60;99.90
25983;DHT22;13773;48.868;10.730;2023-09-30T02:25:14;13.70;99.90
25983;DHT22;13773;48.868;10.730;2023-09-30T02:27:41;13.70;99.90
25983;DHT22;13773;48.868;10.730;2023-09-30T02:30:08;13.80;99.90
25983;DHT22;13773;48.868;10.730;2023-09-30T02:32:37;13.90;99.90
25983;DHT22;13773;48.868;10.730;2023-09-30T02:35:02;13.90;99.90
25983;DHT22;13773;48.868;10.730;2023-09-30T02:37:34;14.00;99.90
25983;DHT22;13773;48.868;10.730;2023-09-30T02:40:02;14.10;99.90
25983;DHT22;13773;48.868;10.730;2023-09-30T02:42:30;14.10;99.90
25983;DHT22;13773;48.868;10.730;2023-09-30T02:44:55;14.10;99.90
25983;DHT22;13773;48.868;10.730;2023-09-30T02:47:21;14.20;99.90
25983;DHT22;13773;48.868;10.730;2023-09-30T02:49:47;14.20;99.90
25983;DHT22;13773;48.868;10.730;2023-09-30T02:52:12;14.30;99.90
25983;DHT22;13773;48.868;10.730;2023-09-30T02:54:38;14.30;99.90
25983;DHT22;13773;48.868;10.730;2023-09-30T02:57:04;14.30;99.90
25983;DHT22;13773;48.868;10.730;2023-09-30T02:59:29;14.30;99.90
25983;DHT22;13773;48.868;10.730;2023-09-30T03:01:55;14.30;99.90
25983;DHT22;13773;48.868;10.730;2023-09-30T03:04:21;14.40;99.90
25983;DHT22;13773;48.868;10.730;2023-09-30T03:06:51;14.40;99.90
25983;DHT22;13773;48.868;10.730;2023-09-30T03:09:17;14.40;99.90
25983;DHT22;13773;48.868;10.730;2023-09-30T03:11:43;14.40;99.90
25983;DHT22;13773;48.868;10.730;2023-09-30T03:14:11;14.40;99.90
25983;DHT22;13773;48.868;10.730;2023-09-30T03:16:39;14.40;99.90
25983;DHT22;13773;48.868;10.730;2023-09-30T03:19:07;14.40;99.90
25983;DHT22;13773;48.868;10.730;2023-09-30T03:21:37;14.40;99.90
25983;DHT22;13773;48.868;10.730;2023-09-30T03:24:03;14.50;99.90
25983;DHT22;13773;48.868;10.730;2023-09-30T03:26:30;14.50;99.90
25983;DHT22;13773;48.868;10.730;2023-09-30T03:28:56;14.50;99.90
25983;DHT22;13773;48.868;10.730;2023-09-30T03:31:22;14.50;99.90
25983;DHT22;13773;48.868;10.730;2023-09-30T03:33:51;14.50;99.90
25983;DHT22;13773;48.868;10.730;2023-09-30T03:36:22;14.50;99.90
25983;DHT22;13773;48.868;10.730;2023-09-30T03:38:50;14.50;99.90
25983;DHT22;13773;48.868;10.730;2023-09-30T03:41:19;14.60;99.90
25983;DHT22;13773;48.868;10.730;2023-09-30T03:43:45;14.60;99.90
25983;DHT22;13773;48.868;10.730;2023-09-30T03:46:11;14.60;99.90
25983;DHT22;13773;48.868;10.730;2023-09-30T03:48:38;14.60;99.90
25983;DHT22;13773;48.868;10.730;2023-09-30T03:51:10;14.60;99.90
25983;DHT22;13773;48.868;10.730;2023-09-30T03:53:40;14.60;99.90
25983;DHT22;13773;48.868;10.730;2023-09-30T03:56:06;14.60;99.90
25983;DHT22;13773;48.868;10.730;2023-09-30T03:58:32;14.60;99.90
25983;DHT22;13773;48.868;10.730;2023-09-30T04:00:59;14.50;99.90
25983;DHT22;13773;48.868;10.730;2023-09-30T04:03:26;14.50;99.90
25983;DHT22;13773;48.868;10.730;2023-09-30T04:05:53;14.40;99.90
25983;DHT22;13773;48.868;10.730;2023-09-30T04:08:18;14.40;99.90
25983;DHT22;13773;48.868;10.730;2023-09-30T04:10:44;14.30;99.90
25983;DHT22;13773;48.868;10.730;2023-09-30T04:13:10;14.30;99.90
25983;DHT22;13773;48.868;10.730;2023-09-30T04:15:37;14.20;99.90
25983;DHT22;13773;48.868;10.730;2023-09-30T04:18:04;14.10;99.90
25983;DHT22;13773;48.868;10.730;2023-09-30T04:20:31;14.00;99.90
25983;DHT22;13773;48.868;10.730;2023-09-30T04:22:57;13.90;99.90
25983;DHT22;13773;48.868;10.730;2023-09-30T04:25:24;13.90;99.90
25983;DHT22;13773;48.868;10.730;2023-09-30T04:27:53;13.80;99.90
25983;DHT22;13773;48.868;10.730;2023-09-30T04:30:19;13.70;99.90
25983;DHT22;13773;48.868;10.730;2023-09-30T04:32:44;13.70;99.90
25983;DHT22;13773;48.868;10.730;2023-09-30T04:35:11;13.70;99.90
25983;DHT22;13773;48.868;10.730;2023-09-30T04:37:37;13.60;99.90
25983;DHT22;13773;48.868;10.730;2023-09-30T04:40:07;13.70;99.90
25983;DHT22;13773;48.868;10.730;2023-09-30T04:42:41;13.60;99.90
25983;DHT22;13773;48.868;10.730;2023-09-30T04:45:08;13.60;99.90
25983;DHT22;13773;48.868;10.730;2023-09-30T04:47:35;13.60;99.90
25983;DHT22;13773;48.868;10.730;2023-09-30T04:50:02;13.60;99.90
25983;DHT22;13773;48.868;10.730;2023-09-30T04:52:30;13.60;99.90
25983;DHT22;13773;48.868;10.730;2023-09-30T04:54:56;13.60;99.90
25983;DHT22;13773;48.868;10.730;2023-09-30T04:57:22;13.50;99.90
25983;DHT22;13773;48.868;10.730;2023-09-30T04:59:48;13.60;99.90
25983;DHT22;13773;48.868;10.730;2023-09-30T05:02:13;13.50;99.90
25983;DHT22;13773;48.868;10.730;2023-09-30T05:04:41;13.50;99.90
25983;DHT22;13773;48.868;10.730;2023-09-30T05:07:07;13.50;99.90
25983;DHT22;13773;48.868;10.730;2023-09-30T05:09:33;13.50;99.90
25983;DHT22;13773;48.868;10.730;2023-09-30T05:11:59;13.50;99.90
25983;DHT22;13773;48.868;10.730;2023-09-30T05:14:24;13.50;99.90
25983;DHT22;13773;48.868;10.730;2023-09-30T05:16:50;13.50;99.90
25983;DHT22;13773;48.868;10.730;2023-09-30T05:19:16;13.50;99.90
25983;DHT22;13773;48.868;10.730;2023-09-30T05:21:42;13.50;99.90
25983;DHT22;13773;48.868;10.730;2023-09-30T05:24:08;13.50;99.90
25983;DHT22;13773;48.868;10.730;2023-09-30T05:26:34;13.50;99.90
25983;DHT22;13773;48.868;10.730;2023-09-30T05:28:59;13.50;99.90
25983;DHT22;13773;48.868;10.730;2023-09-30T05:31:25;13.40;99.90
25983;DHT22;13773;48.868;10.730;2023-09-30T05:33:51;13.40;99.90
25983;DHT22;13773;48.868;10.730;2023-09-30T05:36:16;13.50;99.90
25983;DHT22;13773;48.868;10.730;2023-09-30T05:38:42;13.40;99.90
25983;DHT22;13773;48.868;10.730;2023-09-30T05:41:08;13.50;99.90
25983;DHT22;13773;48.868;10.730;2023-09-30T05:43:34;13.50;99.90
25983;DHT22;13773;48.868;10.730;2023-09-30T05:45:59;13.50;99.90
25983;DHT22;13773;48.868;10.730;2023-09-30T05:48:25;13.50;99.90
25983;DHT22;13773;48.868;10.730;2023-09-30T05:50:51;13.50;99.90
25983;DHT22;13773;48.868;10.730;2023-09-30T05:53:16;13.50;99.90
25983;DHT22;13773;48.868;10.730;2023-09-30T05:55:42;13.50;99.90
25983;DHT22;13773;48.868;10.730;2023-09-30T05:58:13;13.50;99.90
25983;DHT22;13773;48.868;10.730;2023-09-30T06:00:42;13.60;99.90
25983;DHT22;13773;48.868;10.730;2023-09-30T06:03:09;13.60;99.90
25983;DHT22;13773;48.868;10.730;2023-09-30T06:05:39;13.60;99.90
25983;DHT22;13773;48.868;10.730;2023-09-30T06:08:07;13.70;99.90
25983;DHT22;13773;48.868;10.730;2023-09-30T06:10:36;13.70;99.90
25983;DHT22;13773;48.868;10.730;2023-09-30T06:13:03;13.80;99.90
25983;DHT22;13773;48.868;10.730;2023-09-30T06:15:29;13.80;99.90
25983;DHT22;13773;48.868;10.730;2023-09-30T06:17:55;13.80;99.90
25983;DHT22;13773;48.868;10.730;2023-09-30T06:20:21;13.90;99.90
25983;DHT22;13773;48.868;10.730;2023-09-30T06:22:48;14.00;99.90
25983;DHT22;13773;48.868;10.730;2023-09-30T06:25:19;14.00;99.90
25983;DHT22;13773;48.868;10.730;2023-09-30T06:27:46;14.00;99.90
25983;DHT22;13773;48.868;10.730;2023-09-30T06:30:13;14.10;99.90
25983;DHT22;13773;48.868;10.730;2023-09-30T06:32:39;14.20;99.90
25983;DHT22;13773;48.868;10.730;2023-09-30T06:35:06;14.30;99.90
25983;DHT22;13773;48.868;10.730;2023-09-30T06:37:34;14.40;99.90
25983;DHT22;13773;48.868;10.730;2023-09-30T06:40:00;14.40;99.90
25983;DHT22;13773;48.868;10.730;2023-09-30T06:42:29;14.50;99.90
25983;DHT22;13773;48.868;10.730;2023-09-30T06:44:56;14.50;99.90
25983;DHT22;13773;48.868;10.730;2023-09-30T06:47:23;14.60;99.90
25983;DHT22;13773;48.868;10.730;2023-09-30T06:49:49;14.60;99.90
25983;DHT22;13773;48.868;10.730;2023-09-30T06:52:15;14.60;99.90
25983;DHT22;13773;48.868;10.730;2023-09-30T06:54:40;14.50;99.90
25983;DHT22;13773;48.868;10.730;2023-09-30T06:57:06;14.40;99.90
25983;DHT22;13773;48.868;10.730;2023-09-30T06:59:33;14.50;99.90
25983;DHT22;13773;48.868;10.730;2023-09-30T07:01:59;14.60;99.90
25983;DHT22;13773;48.868;10.730;2023-09-30T07:04:24;14.50;99.90
25983;DHT22;13773;48.868;10.730;2023-09-30T07:06:53;14.50;99.90
25983;DHT22;13773;48.868;10.730;2023-09-30T07:09:18;14.50;99.90
25983;DHT22;13773;48.868;10.730;2023-09-30T07:11:46;14.40;99.90
25983;DHT22;13773;48.868;10.730;2023-09-30T07:14:11;14.30;99.90
25983;DHT22;13773;48.868;10.730;2023-09-30T07:16:37;14.30;99.90
25983;DHT22;13773;48.868;10.730;2023-09-30T07:19:04;14.30;99.90
25983;DHT22;13773;48.868;10.730;2023-09-30T07:21:30;14.30;99.90
25983;DHT22;13773;48.868;10.730;2023-09-30T07:23:56;14.30;99.90
25983;DHT22;13773;48.868;10.730;2023-09-30T07:26:25;14.30;99.90
25983;DHT22;13773;48.868;10.730;2023-09-30T07:28:51;14.40;99.90
25983;DHT22;13773;48.868;10.730;2023-09-30T07:31:19;14.40;99.90
25983;DHT22;13773;48.868;10.730;2023-09-30T07:33:45;14.50;99.90
25983;DHT22;13773;48.868;10.730;2023-09-30T07:36:13;14.70;99.90
25983;DHT22;13773;48.868;10.730;2023-09-30T07:38:39;14.80;99.90
25983;DHT22;13773;48.868;10.730;2023-09-30T07:41:05;14.90;99.90
25983;DHT22;13773;48.868;10.730;2023-09-30T07:43:31;14.80;99.90
25983;DHT22;13773;48.868;10.730;2023-09-30T07:45:57;14.80;99.90
25983;DHT22;13773;48.868;10.730;2023-09-30T07:48:22;14.90;99.90
25983;DHT22;13773;48.868;10.730;2023-09-30T07:50:50;15.00;99.90
25983;DHT22;13773;48.868;10.730;2023-09-30T07:53:16;14.90;99.90
25983;DHT22;13773;48.868;10.730;2023-09-30T07:55:41;15.20;99.90
25983;DHT22;13773;48.868;10.730;2023-09-30T07:58:07;15.40;99.90
25983;DHT22;13773;48.868;10.730;2023-09-30T08:00:33;15.50;99.90
25983;DHT22;13773;48.868;10.730;2023-09-30T08:02:59;15.40;99.90
25983;DHT22;13773;48.868;10.730;2023-09-30T08:05:26;15.30;99.90
25983;DHT22;13773;48.868;10.730;2023-09-30T08:07:52;15.30;99.90
25983;DHT22;13773;48.868;10.730;2023-09-30T08:10:18;15.50;99.90
25983;DHT22;13773;48.868;10.730;2023-09-30T08:12:43;15.60;99.90
25983;DHT22;13773;48.868;10.730;2023-09-30T08:15:14;15.70;99.90
25983;DHT22;13773;48.868;10.730;2023-09-30T08:17:40;15.60;99.90
25983;DHT22;13773;48.868;10.730;2023-09-30T08:20:07;13.70;99.90
25983;DHT22;13773;48.868;10.730;2023-09-30T08:22:36;15.80;99.90
25983;DHT22;13773;48.868;10.730;2023-09-30T08:25:02;15.70;99.90
25983;DHT22;13773;48.868;10.730;2023-09-30T08:27:28;15.90;99.90
25983;DHT22;13773;48.868;10.730;2023-09-30T08:29:54;16.20;99.90
25983;DHT22;13773;48.868;10.730;2023-09-30T08:32:20;16.30;99.90
25983;DHT22;13773;48.868;10.730;2023-09-30T08:34:46;16.50;99.90
25983;DHT22;13773;48.868;10.730;2023-09-30T08:37:12;16.60;99.90
25983;DHT22;13773;48.868;10.730;2023-09-30T08:39:38;16.60;99.90
25983;DHT22;13773;48.868;10.730;2023-09-30T08:42:09;16.60;99.90
25983;DHT22;13773;48.868;10.730;2023-09-30T08:44:38;16.50;99.90
25983;DHT22;13773;48.868;10.730;2023-09-30T08:47:06;16.60;99.90
25983;DHT22;13773;48.868;10.730;2023-09-30T08:49:38;16.30;99.90
25983;DHT22;13773;48.868;10.730;2023-09-30T08:52:07;16.10;99.90
25983;DHT22;13773;48.868;10.730;2023-09-30T08:54:34;16.30;99.90
25983;DHT22;13773;48.868;10.730;2023-09-30T08:57:00;16.30;99.90
25983;DHT22;13773;48.868;10.730;2023-09-30T08:59:31;16.30;99.90
25983;DHT22;13773;48.868;10.730;2023-09-30T09:02:00;16.40;99.90
25983;DHT22;13773;48.868;10.730;2023-09-30T09:04:26;16.40;99.90
25983;DHT22;13773;48.868;10.730;2023-09-30T09:06:53;16.20;99.90
25983;DHT22;13773;48.868;10.730;2023-09-30T09:09:21;16.30;99.90
25983;DHT22;13773;48.868;10.730;2023-09-30T09:11:48;16.40;99.90
25983;DHT22;13773;48.868;10.730;2023-09-30T09:14:14;16.50;99.90
25983;DHT22;13773;48.868;10.730;2023-09-30T09:16:56;16.20;99.90
25983;DHT22;13773;48.868;10.730;2023-09-30T09:19:22;16.40;99.90
25983;DHT22;13773;48.868;10.730;2023-09-30T09:21:58;16.70;99.90
25983;DHT22;13773;48.868;10.730;2023-09-30T09:24:34;16.60;99.90
25983;DHT22;13773;48.868;10.730;2023-09-30T09:27:10;16.50;99.90
25983;DHT22;13773;48.868;10.730;2023-09-30T09:29:37;16.70;99.90
25983;DHT22;13773;48.868;10.730;2023-09-30T09:32:13;16.90;99.90
25983;DHT22;13773;48.868;10.730;2023-09-30T09:34:40;17.00;99.90
25983;DHT22;13773;48.868;10.730;2023-09-30T09:37:17;16.90;99.90
25983;DHT22;13773;48.868;10.730;2023-09-30T09:39:57;17.00;99.90
25983;DHT22;13773;48.868;10.730;2023-09-30T09:42:31;17.00;99.90
25983;DHT22;13773;48.868;10.730;2023-09-30T09:45:01;17.10;99.90
25983;DHT22;13773;48.868;10.730;2023-09-30T09:47:29;17.10;99.90
25983;DHT22;13773;48.868;10.730;2023-09-30T09:49:57;17.30;99.90
25983;DHT22;13773;48.868;10.730;2023-09-30T09:52:23;17.30;99.90
25983;DHT22;13773;48.868;10.730;2023-09-30T09:54:50;17.50;99.90
25983;DHT22;13773;48.868;10.730;2023-09-30T09:57:17;17.80;99.90
25983;DHT22;13773;48.868;10.730;2023-09-30T09:59:44;17.90;99.90
25983;DHT22;13773;48.868;10.730;2023-09-30T10:02:14;17.70;99.90
25983;DHT22;13773;48.868;10.730;2023-09-30T10:04:47;17.70;99.90
25983;DHT22;13773;48.868;10.730;2023-09-30T10:07:21;17.50;99.90
25983;DHT22;13773;48.868;10.730;2023-09-30T10:09:51;17.50;99.90
25983;DHT22;13773;48.868;10.730;2023-09-30T10:12:18;17.50;99.90
25983;DHT22;13773;48.868;10.730;2023-09-30T10:14:44;17.70;99.90
25983;DHT22;13773;48.868;10.730;2023-09-30T10:17:10;18.00;99.90
25983;DHT22;13773;48.868;10.730;2023-09-30T10:20:04;17.70;99.90
25983;DHT22;13773;48.868;10.730;2023-09-30T10:22:31;17.60;99.90
25983;DHT22;13773;48.868;10.730;2023-09-30T10:25:00;17.70;99.90
25983;DHT22;13773;48.868;10.730;2023-09-30T10:35:42;17.80;99.90
25983;DHT22;13773;48.868;10.730;2023-09-30T10:40:50;18.00;99.90
25983;DHT22;13773;48.868;10.730;2023-09-30T10:43:33;18.20;99.90
25983;DHT22;13773;48.868;10.730;2023-09-30T10:45:59;18.30;99.90
25983;DHT22;13773;48.868;10.730;2023-09-30T10:50:52;18.30;99.90
25983;DHT22;13773;48.868;10.730;2023-09-30T10:53:19;18.40;99.90
25983;DHT22;13773;48.868;10.730;2023-09-30T10:55:45;18.50;99.90
25983;DHT22;13773;48.868;10.730;2023-09-30T10:58:13;18.50;99.90
25983;DHT22;13773;48.868;10.730;2023-09-30T11:00:38;18.60;99.90
25983;DHT22;13773;48.868;10.730;2023-09-30T11:03:04;18.80;99.90
25983;DHT22;13773;48.868;10.730;2023-09-30T11:05:31;18.70;99.90
25983;DHT22;13773;48.868;10.730;2023-09-30T11:08:02;18.90;99.90
25983;DHT22;13773;48.868;10.730;2023-09-30T11:10:29;19.00;99.90
25983;DHT22;13773;48.868;10.730;2023-09-30T11:12:58;16.70;99.90
25983;DHT22;13773;48.868;10.730;2023-09-30T11:15:24;19.10;99.90
25983;DHT22;13773;48.868;10.730;2023-09-30T11:17:52;19.20;99.90
25983;DHT22;13773;48.868;10.730;2023-09-30T11:20:18;19.00;99.90
25983;DHT22;13773;48.868;10.730;2023-09-30T11:22:45;18.60;99.90
25983;DHT22;13773;48.868;10.730;2023-09-30T11:25:37;18.60;99.90
25983;DHT22;13773;48.868;10.730;2023-09-30T11:28:16;17.30;99.90
25983;DHT22;13773;48.868;10.730;2023-09-30T11:30:55;18.50;99.90
25983;DHT22;13773;48.868;10.730;2023-09-30T11:33:21;18.50;99.90
25983;DHT22;13773;48.868;10.730;2023-09-30T11:36:01;18.80;99.90
25983;DHT22;13773;48.868;10.730;2023-09-30T11:38:28;19.10;99.90
25983;DHT22;13773;48.868;10.730;2023-09-30T11:41:05;19.20;99.90
25983;DHT22;13773;48.868;10.730;2023-09-30T11:43:33;19.30;99.90
25983;DHT22;13773;48.868;10.730;2023-09-30T11:48:31;19.50;99.90
25983;DHT22;13773;48.868;10.730;2023-09-30T11:50:59;19.80;99.90
25983;DHT22;13773;48.868;10.730;2023-09-30T11:53:31;20.00;99.90
25983;DHT22;13773;48.868;10.730;2023-09-30T11:55:59;19.80;99.90
25983;DHT22;13773;48.868;10.730;2023-09-30T11:58:28;19.50;99.90
25983;DHT22;13773;48.868;10.730;2023-09-30T12:00:55;19.20;99.90
25983;DHT22;13773;48.868;10.730;2023-09-30T12:03:23;19.40;99.90
25983;DHT22;13773;48.868;10.730;2023-09-30T12:05:49;19.30;99.90
25983;DHT22;13773;48.868;10.730;2023-09-30T12:08:15;18.90;99.90
25983;DHT22;13773;48.868;10.730;2023-09-30T12:10:41;18.80;99.90
25983;DHT22;13773;48.868;10.730;2023-09-30T12:13:06;19.20;99.90
25983;DHT22;13773;48.868;10.730;2023-09-30T12:15:32;19.10;99.90
25983;DHT22;13773;48.868;10.730;2023-09-30T12:17:58;19.40;99.90
25983;DHT22;13773;48.868;10.730;2023-09-30T12:20:24;19.50;99.90
25983;DHT22;13773;48.868;10.730;2023-09-30T12:22:51;19.30;99.90
25983;DHT22;13773;48.868;10.730;2023-09-30T12:25:19;19.40;99.90
25983;DHT22;13773;48.868;10.730;2023-09-30T12:27:48;19.40;99.90
25983;DHT22;13773;48.868;10.730;2023-09-30T12:30:13;19.30;99.90
25983;DHT22;13773;48.868;10.730;2023-09-30T12:32:40;19.40;99.90
25983;DHT22;13773;48.868;10.730;2023-09-30T12:35:06;19.80;99.90
25983;DHT22;13773;48.868;10.730;2023-09-30T12:37:32;19.90;99.90
25983;DHT22;13773;48.868;10.730;2023-09-30T12:39:58;19.90;99.90
25983;DHT22;13773;48.868;10.730;2023-09-30T12:42:24;19.70;99.90
25983;DHT22;13773;48.868;10.730;2023-09-30T12:44:50;19.50;99.90
25983;DHT22;13773;48.868;10.730;2023-09-30T12:47:15;19.30;99.90
25983;DHT22;13773;48.868;10.730;2023-09-30T12:49:41;19.60;99.90
25983;DHT22;13773;48.868;10.730;2023-09-30T12:52:07;19.80;99.90
25983;DHT22;13773;48.868;10.730;2023-09-30T12:54:33;20.00;99.90
25983;DHT22;13773;48.868;10.730;2023-09-30T12:56:59;20.00;99.90
25983;DHT22;13773;48.868;10.730;2023-09-30T12:59:25;20.20;99.90
25983;DHT22;13773;48.868;10.730;2023-09-30T13:01:51;20.30;99.90
25983;DHT22;13773;48.868;10.730;2023-09-30T13:04:17;20.50;99.90
25983;DHT22;13773;48.868;10.730;2023-09-30T13:06:44;20.50;99.90
25983;DHT22;13773;48.868;10.730;2023-09-30T13:09:10;20.20;99.90
25983;DHT22;13773;48.868;10.730;2023-09-30T13:11:37;20.30;99.90
25983;DHT22;13773;48.868;10.730;2023-09-30T13:14:03;20.60;99.90
25983;DHT22;13773;48.868;10.730;2023-09-30T13:16:29;20.90;99.90
25983;DHT22;13773;48.868;10.730;2023-09-30T13:18:55;20.80;99.90
25983;DHT22;13773;48.868;10.730;2023-09-30T13:21:20;20.50;99.90
25983;DHT22;13773;48.868;10.730;2023-09-30T13:23:46;19.90;99.90
25983;DHT22;13773;48.868;10.730;2023-09-30T13:26:12;19.40;99.90
25983;DHT22;13773;48.868;10.730;2023-09-30T13:28:37;19.00;99.90
25983;DHT22;13773;48.868;10.730;2023-09-30T13:31:03;21.10;99.90
25983;DHT22;13773;48.868;10.730;2023-09-30T13:33:29;19.20;99.90
25983;DHT22;13773;48.868;10.730;2023-09-30T13:35:55;19.10;99.90
25983;DHT22;13773;48.868;10.730;2023-09-30T13:38:21;19.10;99.90
25983;DHT22;13773;48.868;10.730;2023-09-30T13:40:47;19.00;99.90
25983;DHT22;13773;48.868;10.730;2023-09-30T13:43:12;19.20;99.90
25983;DHT22;13773;48.868;10.730;2023-09-30T13:45:38;19.20;99.90
25983;DHT22;13773;48.868;10.730;2023-09-30T13:48:04;19.10;99.90
25983;DHT22;13773;48.868;10.730;2023-09-30T13:50:30;19.00;99.90
25983;DHT22;13773;48.868;10.730;2023-09-30T13:52:55;19.20;99.90
25983;DHT22;13773;48.868;10.730;2023-09-30T13:55:21;19.20;99.90
25983;DHT22;13773;48.868;10.730;2023-09-30T13:57:47;19.30;99.90
25983;DHT22;13773;48.868;10.730;2023-09-30T14:00:14;19.20;99.90
25983;DHT22;13773;48.868;10.730;2023-09-30T14:02:39;19.10;99.90
25983;DHT22;13773;48.868;10.730;2023-09-30T14:05:05;19.10;99.90
25983;DHT22;13773;48.868;10.730;2023-09-30T14:07:35;19.10;99.90
25983;DHT22;13773;48.868;10.730;2023-09-30T14:10:04;19.40;99.90
25983;DHT22;13773;48.868;10.730;2023-09-30T14:12:31;17.80;99.90
25983;DHT22;13773;48.868;10.730;2023-09-30T14:14:57;19.50;99.90
25983;DHT22;13773;48.868;10.730;2023-09-30T14:17:22;19.50;99.90
25983;DHT22;13773;48.868;10.730;2023-09-30T14:19:48;19.40;99.90
25983;DHT22;13773;48.868;10.730;2023-09-30T14:22:15;19.30;99.90
25983;DHT22;13773;48.868;10.730;2023-09-30T14:24:40;19.10;99.90
25983;DHT22;13773;48.868;10.730;2023-09-30T14:27:06;19.10;99.90
25983;DHT22;13773;48.868;10.730;2023-09-30T14:29:32;19.00;99.90
25983;DHT22;13773;48.868;10.730;2023-09-30T14:31:58;18.90;99.90
25983;DHT22;13773;48.868;10.730;2023-09-30T14:34:24;18.80;99.90
25983;DHT22;13773;48.868;10.730;2023-09-30T14:36:50;19.00;99.90
25983;DHT22;13773;48.868;10.730;2023-09-30T14:39:17;19.10;99.90
25983;DHT22;13773;48.868;10.730;2023-09-30T14:41:43;19.10;99.90
25983;DHT22;13773;48.868;10.730;2023-09-30T14:44:09;19.40;99.90
25983;DHT22;13773;48.868;10.730;2023-09-30T14:46:37;19.30;99.90
25983;DHT22;13773;48.868;10.730;2023-09-30T14:49:04;19.30;99.90
25983;DHT22;13773;48.868;10.730;2023-09-30T14:51:31;19.20;99.90
25983;DHT22;13773;48.868;10.730;2023-09-30T14:53:57;19.20;99.90
25983;DHT22;13773;48.868;10.730;2023-09-30T14:56:23;19.10;99.90
25983;DHT22;13773;48.868;10.730;2023-09-30T14:58:48;19.10;99.90
25983;DHT22;13773;48.868;10.730;2023-09-30T15:01:14;19.20;99.90
25983;DHT22;13773;48.868;10.730;2023-09-30T15:03:40;19.20;99.90
25983;DHT22;13773;48.868;10.730;2023-09-30T15:06:06;19.20;99.90
25983;DHT22;13773;48.868;10.730;2023-09-30T15:08:32;19.00;99.90
25983;DHT22;13773;48.868;10.730;2023-09-30T15:10:59;19.00;99.90
25983;DHT22;13773;48.868;10.730;2023-09-30T15:13:25;19.00;99.90
25983;DHT22;13773;48.868;10.730;2023-09-30T15:15:51;19.10;99.90
25983;DHT22;13773;48.868;10.730;2023-09-30T15:18:17;19.00;99.90
25983;DHT22;13773;48.868;10.730;2023-09-30T15:20:43;19.10;99.90
25983;DHT22;13773;48.868;10.730;2023-09-30T15:23:10;20.60;99.90
25983;DHT22;13773;48.868;10.730;2023-09-30T15:25:43;19.00;99.90
25983;DHT22;13773;48.868;10.730;2023-09-30T15:28:12;18.90;99.90
25983;DHT22;13773;48.868;10.730;2023-09-30T15:30:41;18.80;99.90